Time;durP1;ratioP1;P1;durP2;ratioP2;P2;SDS_P1;SDS_P2;PMS_P1;PMS_P2;Temp;Humidity;BMP_temperature;BMP_pressure;BME280_temperature;BME280_humidity;BME280_pressure;Samples;Min_cycle;Max_cycle;Signal;HPM_P1;HPM_P2
2024/01/14 00:00:11;;;;;;;45.42;17.40;;;;;;;-0.46;100.00;99907.53;12188722;19;20007;-82
2024/01/14 00:04:14;;;;;;;42.83;17.65;;;;;;;-0.52;100.00;99905.53;12204068;19;20026;-84
2024/01/14 00:08:23;;;;;;;40.35;15.20;;;;;;;-0.50;100.00;99906.22;12208983;19;20010;-82
2024/01/14 00:12:25;;;;;;;38.23;16.63;;;;;;;-0.51;100.00;99903.66;12182008;19;20055;-82
2024/01/14 00:16:29;;;;;;;43.58;16.45;;;;;;;-0.55;100.00;99888.81;12201880;19;20263;-83
2024/01/14 00:20:31;;;;;;;41.70;14.23;;;;;;;-0.59;100.00;99891.03;12202800;19;20066;-82
2024/01/14 00:24:34;;;;;;;45.92;15.45;;;;;;;-0.64;100.00;99885.28;12174566;19;20019;-80
2024/01/14 00:28:39;;;;;;;40.72;15.55;;;;;;;-0.69;100.00;99872.28;12206683;19;20018;-83
2024/01/14 00:32:41;;;;;;;44.40;16.57;;;;;;;-0.63;100.00;99873.44;12208112;19;20010;-82
2024/01/14 00:36:44;;;;;;;45.17;15.07;;;;;;;-0.65;100.00;99864.66;12184771;19;20015;-84
2024/01/14 00:40:45;;;;;;;42.80;16.10;;;;;;;-0.64;100.00;99854.69;12205567;19;20059;-83
2024/01/14 00:44:47;;;;;;;40.10;14.97;;;;;;;-0.72;100.00;99845.56;12204858;19;20616;-85
2024/01/14 00:48:49;;;;;;;44.13;16.77;;;;;;;-0.68;100.00;99843.38;12183011;19;20021;-84
2024/01/14 00:52:52;;;;;;;45.78;15.75;;;;;;;-0.72;100.00;99839.31;12221969;19;20054;-82
2024/01/14 00:56:54;;;;;;;48.00;16.35;;;;;;;-0.78;100.00;99834.59;12242799;19;20058;-84
2024/01/14 01:00:57;;;;;;;46.45;15.98;;;;;;;-0.73;100.00;99837.63;12188507;19;20030;-84
2024/01/14 01:04:59;;;;;;;45.20;14.40;;;;;;;-0.69;100.00;99833.53;12211999;19;20021;-84
2024/01/14 01:09:06;;;;;;;41.53;16.52;;;;;;;-0.69;100.00;99836.25;12195434;19;20147;-84
2024/01/14 01:13:10;;;;;;;39.13;14.65;;;;;;;-0.64;100.00;99828.44;12207937;19;20038;-85
2024/01/14 01:17:12;;;;;;;41.40;14.45;;;;;;;-0.68;100.00;99824.44;12209845;19;20006;-85
2024/01/14 01:21:19;;;;;;;;;;;;;;;-0.72;100.00;99823.91;12192755;19;20018;-85
2024/01/14 01:25:25;;;;;;;43.85;14.85;;;;;;;-0.71;100.00;99822.91;12210770;19;19930;-83
2024/01/14 01:29:27;;;;;;;36.65;13.98;;;;;;;-0.69;100.00;99826.25;12204003;19;20007;-83
2024/01/14 01:33:29;;;;;;;47.50;13.82;;;;;;;-0.66;100.00;99829.66;12171541;19;20015;-86
2024/01/14 01:37:31;;;;;;;48.10;15.30;;;;;;;-0.63;100.00;99823.88;12206069;19;20068;-84
2024/01/14 01:41:34;;;;;;;;;;;;;;;-0.58;100.00;99827.75;12210843;19;20027;-84
2024/01/14 01:45:39;;;;;;;36.95;12.30;;;;;;;-0.66;100.00;99822.38;12183753;19;19910;-85
2024/01/14 01:49:43;;;;;;;46.15;15.32;;;;;;;-0.72;100.00;99814.97;12204440;19;20032;-84
2024/01/14 01:53:46;;;;;;;40.67;14.05;;;;;;;-0.70;100.00;99805.66;12204839;19;20010;-84
2024/01/14 01:57:48;;;;;;;44.05;15.80;;;;;;;-0.73;100.00;99814.13;12186093;19;20002;-85
2024/01/14 02:01:51;;;;;;;47.67;15.25;;;;;;;-0.75;100.00;99810.72;12208496;19;20007;-83
2024/01/14 02:05:57;;;;;;;46.88;15.25;;;;;;;-0.70;100.00;99799.41;12207181;19;20031;-84
2024/01/14 02:10:00;;;;;;;41.03;14.68;;;;;;;-0.70;100.00;99799.41;12186894;19;20002;-84
2024/01/14 02:14:05;;;;;;;45.25;14.52;;;;;;;-0.67;100.00;99801.75;12205323;19;20078;-85
2024/01/14 02:18:07;;;;;;;52.95;15.73;;;;;;;-0.66;100.00;99803.41;12187137;19;20011;-83
2024/01/14 02:22:17;;;;;;;40.92;14.85;;;;;;;-0.75;100.00;99788.25;12209695;19;20068;-84
2024/01/14 02:26:19;;;;;;;41.95;14.38;;;;;;;-0.74;100.00;99779.97;12200589;19;20018;-84
2024/01/14 02:30:22;;;;;;;41.37;14.53;;;;;;;-0.76;100.00;99778.47;12184063;19;20015;-85
2024/01/14 02:34:24;;;;;;;46.42;17.55;;;;;;;-0.79;100.00;99762.59;12202252;19;20240;-83
2024/01/14 02:38:26;;;;;;;42.15;14.35;;;;;;;-0.95;100.00;99758.09;12206272;19;20002;-85
2024/01/14 02:42:28;;;;;;;48.60;14.80;;;;;;;-0.96;100.00;99751.00;12186117;19;20034;-84
2024/01/14 02:46:30;;;;;;;43.17;15.97;;;;;;;-0.90;100.00;99757.56;12203165;19;20018;-83
2024/01/14 02:50:34;;;;;;;47.53;14.65;;;;;;;-0.93;100.00;99748.78;12204622;19;20284;-84
2024/01/14 02:54:35;;;;;;;39.45;14.85;;;;;;;-0.97;100.00;99754.72;12181849;19;20010;-85
2024/01/14 02:58:38;;;;;;;50.03;15.77;;;;;;;-0.96;100.00;99759.94;12201637;19;20018;-84
2024/01/14 03:02:41;;;;;;;50.08;16.33;;;;;;;-0.94;100.00;99762.50;12203872;19;20014;-84
2024/01/14 03:06:44;;;;;;;48.78;14.27;;;;;;;-0.89;100.00;99759.25;12182678;19;20540;-86
2024/01/14 03:10:48;;;;;;;43.00;15.00;;;;;;;-0.85;100.00;99756.00;12204081;19;20128;-86
2024/01/14 03:14:50;;;;;;;38.63;15.93;;;;;;;-0.85;100.00;99761.44;12193067;19;20091;-83
2024/01/14 03:18:53;;;;;;;32.90;11.80;;;;;;;-0.83;100.00;99747.69;12177749;19;20003;-84
2024/01/14 03:22:56;;;;;;;55.83;16.00;;;;;;;-0.93;100.00;99729.00;12203334;19;20555;-85
2024/01/14 03:26:58;;;;;;;43.47;14.52;;;;;;;-0.94;100.00;99727.31;12204123;19;20007;-84
2024/01/14 03:31:12;;;;;;;49.53;15.65;;;;;;;-0.93;100.00;99742.53;12177418;19;20003;-84
2024/01/14 03:35:14;;;;;;;38.92;13.55;;;;;;;-0.91;100.00;99740.50;12200225;19;20007;-83
2024/01/14 03:39:16;;;;;;;47.13;15.20;;;;;;;-0.92;100.00;99739.66;12180809;19;19999;-83
2024/01/14 03:43:18;;;;;;;48.20;17.10;;;;;;;-0.90;100.00;99736.75;12200681;19;20046;-85
2024/01/14 03:47:20;;;;;;;47.28;15.52;;;;;;;-0.87;100.00;99731.00;12200020;19;20011;-84
2024/01/14 03:51:23;;;;;;;49.40;15.57;;;;;;;-0.92;100.00;99728.84;12177117;19;20003;-85
2024/01/14 03:55:29;;;;;;;39.75;13.88;;;;;;;-0.88;100.00;99725.78;12196816;19;19999;-85
2024/01/14 03:59:32;;;;;;;45.78;14.60;;;;;;;-0.86;100.00;99721.88;12200277;19;20002;-84
2024/01/14 04:03:34;;;;;;;45.33;14.20;;;;;;;-0.86;100.00;99729.13;12185316;19;21094;-85
2024/01/14 04:07:36;;;;;;;49.65;17.65;;;;;;;-0.85;100.00;99711.88;12213288;19;20031;-83
2024/01/14 04:11:38;;;;;;;51.07;13.77;;;;;;;-0.85;100.00;99695.66;12213497;19;20315;-83
2024/01/14 04:15:44;;;;;;;42.13;14.55;;;;;;;-0.94;100.00;99687.59;12185225;19;20006;-83
2024/01/14 04:19:46;;;;;;;40.87;14.57;;;;;;;-0.97;100.00;99690.66;12211506;19;20072;-83
2024/01/14 04:23:48;;;;;;;40.23;14.03;;;;;;;-0.96;100.00;99683.38;12208662;19;20010;-83
2024/01/14 04:27:50;;;;;;;33.60;13.38;;;;;;;-1.05;100.00;99655.53;12190873;19;20240;-82
2024/01/14 04:31:52;;;;;;;34.73;13.13;;;;;;;-1.06;100.00;99653.88;12214621;19;19999;-82
2024/01/14 04:35:55;;;;;;;40.97;13.48;;;;;;;-1.08;100.00;99658.59;12214999;19;20447;-88
2024/01/14 04:40:01;;;;;;;37.95;13.02;;;;;;;-1.10;100.00;99674.19;12189411;19;20355;-83
2024/01/14 04:44:04;;;;;;;37.85;12.80;;;;;;;-1.07;100.00;99668.41;12211294;19;20011;-84
2024/01/14 04:48:06;;;;;;;43.03;13.25;;;;;;;-1.03;100.00;99685.13;12203079;19;20006;-83
2024/01/14 04:52:10;;;;;;;41.83;14.52;;;;;;;-1.01;100.00;99669.53;12218710;19;20069;-84
2024/01/14 04:56:16;;;;;;;44.78;14.40;;;;;;;-1.01;100.00;99665.00;12219377;19;20018;-84
2024/01/14 05:00:19;;;;;;;37.47;13.13;;;;;;;-1.15;100.00;99665.75;12217080;19;20025;-82
2024/01/14 05:04:21;;;;;;;51.63;14.50;;;;;;;-1.19;100.00;99659.00;12237027;19;20007;-84
2024/01/14 05:08:25;;;;;;;49.63;15.45;;;;;;;-1.30;100.00;99660.25;12224461;19;20003;-82
2024/01/14 05:12:27;;;;;;;48.30;16.08;;;;;;;-1.32;100.00;99659.56;12182352;19;20030;-84
2024/01/14 05:16:30;;;;;;;35.85;13.50;;;;;;;-1.31;100.00;99658.59;12202501;19;20003;-84
2024/01/14 05:20:31;;;;;;;53.57;15.30;;;;;;;-1.28;100.00;99657.34;12210824;19;20461;-86
2024/01/14 05:24:34;;;;;;;60.08;17.88;;;;;;;-1.30;100.00;99651.31;12184931;19;20021;-84
2024/01/14 05:28:36;;;;;;;47.80;16.07;;;;;;;-1.32;100.00;99653.34;12218695;19;20071;-83
2024/01/14 05:32:39;;;;;;;57.50;17.92;;;;;;;-1.40;100.00;99648.81;12213869;19;20015;-85
2024/01/14 05:36:47;;;;;;;48.58;16.60;;;;;;;-1.34;100.00;99658.06;12187179;19;20027;-87
2024/01/14 05:40:50;;;;;;;39.78;13.98;;;;;;;-1.44;100.00;99651.03;12212306;19;20011;-84
2024/01/14 05:44:53;;;;;;;50.15;15.73;;;;;;;-1.49;100.00;99650.69;12214569;19;20018;-85
2024/01/14 05:48:56;;;;;;;50.30;16.55;;;;;;;-1.39;100.00;99651.34;12195551;19;20014;-85
2024/01/14 05:52:59;;;;;;;53.95;14.63;;;;;;;-1.41;100.00;99652.53;12212132;19;20011;-83
2024/01/14 05:57:03;;;;;;;40.30;14.85;;;;;;;-1.47;100.00;99635.16;12214748;19;20014;-84
2024/01/14 06:01:05;;;;;;;53.45;16.45;;;;;;;-1.49;100.00;99637.19;12194855;19;20003;-85
2024/01/14 06:05:08;;;;;;;48.60;15.00;;;;;;;-1.48;100.00;99630.78;12209173;19;20015;-84
2024/01/14 06:09:10;;;;;;;;;;;;;;;-1.50;100.00;99626.56;12187830;19;20266;-84
2024/01/14 06:13:12;;;;;;;42.28;15.02;;;;;;;-1.54;100.00;99619.84;12212115;19;19911;-84
2024/01/14 06:17:15;;;;;;;45.70;14.77;;;;;;;-1.51;100.00;99614.94;12209981;19;20055;-83
2024/01/14 06:21:18;;;;;;;50.53;14.10;;;;;;;-1.54;100.00;99615.28;12187454;19;20014;-83
2024/01/14 06:25:20;;;;;;;43.37;14.70;;;;;;;-1.54;100.00;99620.69;12203206;19;20490;-83
2024/01/14 06:29:22;;;;;;;26.83;10.83;;;;;;;-1.62;100.00;99609.91;12208842;19;20031;-83
2024/01/14 06:33:24;;;;;;;46.47;15.05;;;;;;;-1.69;100.00;99606.25;12181675;19;20298;-83
2024/01/14 06:37:27;;;;;;;49.85;13.98;;;;;;;-1.84;100.00;99592.63;12203806;19;20023;-83
2024/01/14 06:41:29;;;;;;;45.40;14.20;;;;;;;-1.84;100.00;99579.13;12211740;19;20022;-82
2024/01/14 06:45:31;;;;;;;50.53;15.35;;;;;;;-1.84;100.00;99577.25;12187099;19;20279;-82
2024/01/14 06:49:33;;;;;;;52.23;14.47;;;;;;;-1.86;100.00;99568.47;12207516;19;20010;-84
2024/01/14 06:53:36;;;;;;;50.70;15.35;;;;;;;-1.94;100.00;99578.47;12206697;19;20255;-84
2024/01/14 06:57:38;;;;;;;50.67;16.13;;;;;;;-2.01;100.00;99577.50;12184701;19;20023;-84
2024/01/14 07:01:48;;;;;;;53.53;15.50;;;;;;;-1.96;100.00;99580.53;12206012;19;20049;-84
2024/01/14 07:05:51;;;;;;;51.60;15.85;;;;;;;-1.96;100.00;99567.84;12205510;19;20138;-84
2024/01/14 07:09:53;;;;;;;43.67;14.50;;;;;;;-1.92;100.00;99581.84;12187692;19;20031;-82
2024/01/14 07:13:55;;;;;;;51.87;15.53;;;;;;;-1.95;100.00;99584.91;12203508;19;20509;-82
2024/01/14 07:17:58;;;;;;;36.90;12.95;;;;;;;-1.89;100.00;99582.34;12199458;19;20268;-83
2024/01/14 07:22:04;;;;;;;49.92;14.18;;;;;;;-1.90;100.00;99583.38;12183211;19;20127;-83
2024/01/14 07:26:16;;;;;;;46.08;13.68;;;;;;;-1.90;100.00;99572.56;12202476;19;20031;-84
2024/01/14 07:30:22;;;;;;;44.42;14.88;;;;;;;-1.93;100.00;99564.81;12184148;19;20022;-82
2024/01/14 07:34:26;;;;;;;34.92;10.65;;;;;;;-1.96;100.00;99562.47;12200850;19;20007;-84
2024/01/14 07:38:28;;;;;;;31.90;11.45;;;;;;;-2.02;100.00;99555.06;12203628;19;20011;-82
2024/01/14 07:42:31;;;;;;;;;;;;;;;-1.85;100.00;99575.56;12183150;19;20410;-82
2024/01/14 07:46:37;;;;;;;44.25;12.75;;;;;;;-1.82;100.00;99574.38;12204049;19;19933;-83
2024/01/14 07:50:40;;;;;;;47.08;13.45;;;;;;;-1.76;100.00;99579.06;12204821;19;20007;-84
2024/01/14 07:54:43;;;;;;;;;;;;;;;-1.75;100.00;99566.41;12181617;19;20015;-82
2024/01/14 07:58:46;;;;;;;47.75;14.68;;;;;;;-1.67;100.00;99582.56;12207071;19;19917;-85
2024/01/14 08:02:48;;;;;;;38.47;13.97;;;;;;;-1.71;100.00;99578.53;12203783;19;20014;-84
2024/01/14 08:06:52;;;;;;;43.13;13.70;;;;;;;-1.72;100.00;99584.97;12181115;19;20383;-82
2024/01/14 08:10:54;;;;;;;48.20;13.68;;;;;;;-1.61;100.00;99585.44;12202676;19;20003;-83
2024/01/14 08:14:56;;;;;;;42.00;12.93;;;;;;;-1.62;100.00;99580.19;12199617;19;20494;-83
2024/01/14 08:18:58;;;;;;;48.50;13.00;;;;;;;-1.52;100.00;99572.69;12175957;19;20679;-83
2024/01/14 08:23:02;;;;;;;51.65;13.35;;;;;;;-1.46;100.00;99563.91;12196391;19;20013;-84
2024/01/14 08:27:04;;;;;;;41.33;12.40;;;;;;;-1.43;100.00;99563.53;12199653;19;20443;-83
2024/01/14 08:31:06;;;;;;;42.17;12.73;;;;;;;-1.44;100.00;99561.84;12172278;19;20387;-82
2024/01/14 08:35:11;;;;;;;39.50;12.50;;;;;;;-1.33;100.00;99566.00;12188345;19;20062;-81
2024/01/14 08:39:19;;;;;;;41.00;12.65;;;;;;;-1.30;100.00;99554.00;12178925;19;20085;-82
2024/01/14 08:43:21;;;;;;;39.60;12.68;;;;;;;-1.23;100.00;99557.66;12183285;19;20433;-83
2024/01/14 08:47:23;;;;;;;38.97;12.67;;;;;;;-1.25;100.00;99544.31;12198014;19;20006;-83
2024/01/14 08:51:25;;;;;;;41.13;13.07;;;;;;;-1.12;100.00;99548.28;12185828;19;20513;-85
2024/01/14 08:55:28;;;;;;;39.28;13.68;;;;;;;-1.13;100.00;99539.34;12209492;19;20006;-83
2024/01/14 08:59:34;;;;;;;47.13;13.27;;;;;;;-1.18;100.00;99545.28;12211268;19;20883;-83
2024/01/14 09:03:36;;;;;;;40.97;13.05;;;;;;;-1.10;100.00;99533.56;12188262;19;20018;-83
2024/01/14 09:07:39;;;;;;;34.63;11.13;;;;;;;-1.07;100.00;99535.91;12219219;19;20010;-84
2024/01/14 09:11:41;;;;;;;43.73;14.00;;;;;;;-1.17;100.00;99533.44;12208723;19;20011;-83
2024/01/14 09:15:43;;;;;;;39.53;12.55;;;;;;;-1.12;100.00;99532.91;12191564;19;20006;-82
2024/01/14 09:19:46;;;;;;;36.35;12.75;;;;;;;-0.99;100.00;99538.53;12220796;19;20015;-82
2024/01/14 09:23:48;;;;;;;39.42;12.70;;;;;;;-0.90;100.00;99535.75;12209545;19;20011;-84
2024/01/14 09:27:50;;;;;;;40.67;12.70;;;;;;;-0.79;100.00;99532.63;12189452;19;20003;-87
2024/01/14 09:31:54;;;;;;;37.58;13.77;;;;;;;-0.67;100.00;99539.25;12219332;19;20021;-84
2024/01/14 09:35:56;;;;;;;38.85;12.48;;;;;;;-0.58;100.00;99543.56;12208073;19;20028;-84
2024/01/14 09:39:59;;;;;;;36.60;11.85;;;;;;;-0.64;100.00;99541.59;12185952;19;20011;-86
2024/01/14 09:44:04;;;;;;;39.03;13.52;;;;;;;-0.89;100.00;99542.84;12200033;19;20034;-85
2024/01/14 09:48:08;;;;;;;39.90;12.80;;;;;;;-0.84;100.00;99535.84;12201709;19;20010;-84
2024/01/14 09:52:11;;;;;;;37.80;12.05;;;;;;;-0.81;100.00;99534.66;12187602;19;20017;-84
2024/01/14 09:56:13;;;;;;;;;;;;;;;-0.76;100.00;99549.31;12207795;19;20031;-85
2024/01/14 10:00:16;;;;;;;31.55;10.25;;;;;;;-0.61;100.00;99535.81;12195731;19;19951;-86
2024/01/14 10:04:19;;;;;;;31.15;11.75;;;;;;;-0.50;100.00;99529.97;12209279;19;20010;-84
2024/01/14 10:08:25;;;;;;;32.80;10.43;;;;;;;-0.68;100.00;99524.06;12208551;19;20848;-85
2024/01/14 10:12:31;;;;;;;35.47;12.05;;;;;;;-0.80;100.00;99520.13;12186721;19;20022;-85
2024/01/14 10:16:39;;;;;;;34.00;11.98;;;;;;;-0.85;100.00;99523.38;12196990;19;20003;-83
2024/01/14 10:20:55;;;;;;;32.47;13.10;;;;;;;-0.71;100.00;99524.44;12210730;19;20074;-85
2024/01/14 10:24:57;;;;;;;34.03;12.07;;;;;;;-0.57;100.00;99526.28;12181903;19;20006;-84
2024/01/14 10:29:05;;;;;;;35.63;12.67;;;;;;;-0.40;100.00;99512.59;12204044;19;20027;-84
2024/01/14 10:33:10;;;;;;;38.17;11.50;;;;;;;-0.31;100.00;99504.19;12181052;19;20014;-84
2024/01/14 10:37:28;;;;;;;32.47;11.07;;;;;;;-0.40;100.00;99502.59;12204309;19;20084;-84
2024/01/14 10:41:37;;;;;;;31.35;10.65;;;;;;;-0.40;100.00;99499.91;12201567;19;19999;-84
2024/01/14 10:45:41;;;;;;;35.67;11.30;;;;;;;-0.57;100.00;99487.56;12189126;19;20006;-86
2024/01/14 10:49:47;;;;;;;30.50;9.15;;;;;;;-0.60;100.00;99487.94;12205922;19;20014;-84
2024/01/14 10:54:10;;;;;;;32.85;10.75;;;;;;;-0.75;100.00;99477.09;12207232;19;20376;-84
2024/01/14 10:58:23;;;;;;;33.10;11.25;;;;;;;-0.64;100.00;99475.81;12177860;19;20514;-85
2024/01/14 11:02:27;;;;;;;23.33;9.47;;;;;;;-0.53;100.00;99475.34;12205193;19;20007;-84
2024/01/14 11:06:29;;;;;;;34.45;10.88;;;;;;;-0.39;100.00;99460.13;12179809;19;20131;-83
2024/01/14 11:10:32;;;;;;;34.78;12.32;;;;;;;-0.45;100.00;99442.75;12202692;19;20007;-85
2024/01/14 11:14:41;;;;;;;38.10;12.00;;;;;;;-0.32;100.00;99448.38;12211654;19;20014;-84
2024/01/14 11:18:49;;;;;;;31.88;11.73;;;;;;;-0.35;100.00;99443.31;12194090;19;20010;-83
2024/01/14 11:22:52;;;;;;;39.58;12.07;;;;;;;-0.45;100.00;99440.06;12240084;19;20021;-82
2024/01/14 11:27:15;;;;;;;43.17;14.40;;;;;;;-0.48;100.00;99426.91;12264729;19;20009;-83
2024/01/14 11:32:04;;;;;;;41.53;15.45;;;;;;;-0.38;100.00;99422.06;12235463;19;20047;-84
2024/01/14 11:36:10;;;;;;;43.17;14.00;;;;;;;-0.34;100.00;99411.69;12195257;19;20045;-84
2024/01/14 11:40:27;;;;;;;43.97;15.55;;;;;;;-0.26;100.00;99406.16;12171062;19;20006;-85
2024/01/14 11:44:35;;;;;;;46.42;15.05;;;;;;;-0.21;99.72;99384.75;12194818;19;20027;-84
2024/01/14 11:48:37;;;;;;;42.75;15.05;;;;;;;0.06;99.53;99369.66;12183795;19;20034;-85
2024/01/14 11:52:44;;;;;;;43.90;15.88;;;;;;;0.21;98.14;99367.72;12200615;19;20042;-86
2024/01/14 11:56:47;;;;;;;50.33;15.75;;;;;;;0.22;96.98;99357.72;12204973;19;20743;-86
2024/01/14 12:00:52;;;;;;;43.78;14.93;;;;;;;0.03;97.11;99344.78;12174918;19;20006;-86
2024/01/14 12:04:55;;;;;;;44.42;13.80;;;;;;;-0.07;97.86;99343.25;12202452;19;20002;-85
2024/01/14 12:09:09;;;;;;;43.30;14.88;;;;;;;-0.02;98.48;99324.56;12187095;19;20040;-84
2024/01/14 12:13:14;;;;;;;;;;;;;;;0.12;97.38;99324.66;12199215;19;20518;-84
2024/01/14 12:17:16;;;;;;;54.40;17.20;;;;;;;-0.04;97.20;99310.34;12197445;19;19955;-86
2024/01/14 12:21:19;;;;;;;41.33;14.95;;;;;;;-0.08;97.68;99306.38;12179165;19;20033;-85
2024/01/14 12:25:33;;;;;;;47.72;16.42;;;;;;;-0.22;98.12;99287.47;12206699;19;20031;-85
2024/01/14 12:29:35;;;;;;;44.10;15.40;;;;;;;-0.27;98.93;99288.91;12210914;19;20023;-84
2024/01/14 12:33:43;;;;;;;42.35;16.27;;;;;;;-0.27;98.98;99266.38;12188896;19;20094;-82
2024/01/14 12:37:47;;;;;;;41.80;14.85;;;;;;;-0.30;99.03;99262.22;12203502;19;20855;-85
2024/01/14 12:41:51;;;;;;;36.72;14.02;;;;;;;-0.31;98.89;99255.09;12216713;19;20507;-85
2024/01/14 12:45:56;;;;;;;43.25;14.98;;;;;;;-0.32;98.84;99244.47;12187046;19;20018;-82
2024/01/14 12:50:00;;;;;;;42.65;14.07;;;;;;;-0.29;98.82;99239.50;12209165;19;20466;-82
2024/01/14 12:54:02;;;;;;;38.35;14.13;;;;;;;-0.27;99.09;99228.47;12207377;19;20039;-84
2024/01/14 12:58:11;;;;;;;38.13;13.05;;;;;;;-0.36;99.33;99218.81;12206224;19;20367;-85
2024/01/14 13:02:13;;;;;;;38.05;13.30;;;;;;;-0.44;99.70;99210.84;12255871;19;20009;-83
2024/01/14 13:06:16;;;;;;;37.88;12.05;;;;;;;-0.31;99.60;99206.38;12187350;19;20728;-85
2024/01/14 13:10:21;;;;;;;32.85;13.07;;;;;;;-0.28;98.61;99200.56;12198386;19;20002;-85
2024/01/14 13:14:23;;;;;;;41.57;14.80;;;;;;;-0.31;98.90;99194.72;12217155;19;20089;-86
2024/01/14 13:18:25;;;;;;;40.63;13.37;;;;;;;-0.25;99.45;99185.81;12210221;19;20010;-84
2024/01/14 13:22:27;;;;;;;36.53;12.90;;;;;;;-0.23;98.97;99181.03;12192052;19;20017;-84
2024/01/14 13:26:30;;;;;;;40.53;13.25;;;;;;;-0.20;99.04;99169.81;12213977;19;20014;-87
2024/01/14 13:30:35;;;;;;;42.00;14.35;;;;;;;-0.22;99.01;99163.75;12205265;19;20426;-86
2024/01/14 13:34:37;;;;;;;49.50;14.47;;;;;;;-0.26;99.28;99159.78;12224403;19;20010;-85
2024/01/14 13:38:39;;;;;;;;;;;;;;;-0.22;99.24;99152.91;12215015;19;20079;-87
2024/01/14 13:42:41;;;;;;;31.83;11.82;;;;;;;-0.27;98.98;99153.53;12190809;19;19915;-86
2024/01/14 13:46:45;;;;;;;36.35;14.27;;;;;;;-0.38;99.52;99151.34;12217208;19;20007;-85
2024/01/14 13:50:49;;;;;;;36.83;13.15;;;;;;;-0.43;100.00;99142.97;12220324;19;20390;-86
2024/01/14 13:54:55;;;;;;;43.80;13.13;;;;;;;-0.41;100.00;99129.25;12191780;19;20050;-84
2024/01/14 13:58:57;;;;;;;44.07;15.13;;;;;;;-0.33;100.00;99132.66;12216994;19;20066;-86
2024/01/14 14:03:01;;;;;;;43.03;13.25;;;;;;;-0.29;100.00;99127.69;12222801;19;20790;-86
2024/01/14 14:11:15;;;;;;;41.40;15.13;;;;;;;-0.66;100.00;99107.16;12214900;19;20020;-84
2024/01/14 14:15:17;;;;;;;43.17;12.90;;;;;;;-0.62;100.00;99116.59;12204376;19;20023;-86
2024/01/14 14:19:20;;;;;;;39.45;13.30;;;;;;;-0.63;100.00;99118.44;12190620;19;20035;-87
2024/01/14 14:23:23;;;;;;;49.47;14.77;;;;;;;-0.69;100.00;99103.81;12211537;19;20006;-84
2024/01/14 14:27:35;;;;;;;44.15;13.30;;;;;;;-0.71;100.00;99105.06;12210814;19;20434;-85
2024/01/14 14:31:36;;;;;;;52.80;16.33;;;;;;;-0.64;100.00;99097.00;12223313;19;20035;-85
2024/01/14 14:35:50;;;;;;;52.97;16.50;;;;;;;-0.61;100.00;99097.44;12201960;19;20490;-84
2024/01/14 14:39:52;;;;;;;52.95;16.80;;;;;;;-0.60;100.00;99101.78;12181973;19;20010;-85
2024/01/14 14:43:57;;;;;;;47.78;14.20;;;;;;;-0.57;100.00;99087.88;12204623;19;20007;-85
2024/01/14 14:47:58;;;;;;;;;;;;;;;-0.57;100.00;99087.03;12202696;19;20031;-84
2024/01/14 14:52:01;;;;;;;45.33;13.93;;;;;;;-0.60;100.00;99079.31;12178197;19;19922;-85
2024/01/14 14:56:03;;;;;;;37.80;14.07;;;;;;;-0.60;100.00;99073.91;12206384;19;20031;-84
2024/01/14 15:00:08;;;;;;;46.63;15.30;;;;;;;-0.60;100.00;99072.03;12203496;19;20013;-85
2024/01/14 15:04:12;;;;;;;56.15;16.52;;;;;;;-0.55;100.00;99072.28;12178858;19;20646;-84
2024/01/14 15:08:17;;;;;;;46.30;17.17;;;;;;;-0.53;100.00;99062.13;12206979;19;20050;-83
2024/01/14 15:12:23;;;;;;;57.17;19.08;;;;;;;-0.60;100.00;99058.50;12204356;19;20002;-83
2024/01/14 15:16:25;;;;;;;45.13;15.60;;;;;;;-0.71;100.00;99056.34;12178622;19;20010;-84
2024/01/14 15:20:27;;;;;;;48.67;16.43;;;;;;;-0.88;100.00;99044.97;12204534;19;21834;-85
2024/01/14 15:24:30;;;;;;;48.58;19.05;;;;;;;-0.91;100.00;99031.84;12200889;19;20021;-85
2024/01/14 15:28:32;;;;;;;52.17;16.55;;;;;;;-0.93;100.00;99028.47;12180478;19;20094;-84
2024/01/14 15:32:35;;;;;;;50.92;16.25;;;;;;;-0.98;100.00;99026.38;12204567;19;20002;-85
2024/01/14 15:36:38;;;;;;;47.33;17.38;;;;;;;-1.11;100.00;99025.41;12178667;19;20007;-85
2024/01/14 15:40:40;;;;;;;49.55;15.20;;;;;;;-1.19;100.00;99023.66;12206332;19;20146;-85
2024/01/14 15:44:42;;;;;;;34.87;14.57;;;;;;;-1.22;100.00;99022.22;12206314;19;20375;-84
2024/01/14 15:48:46;;;;;;;60.45;15.15;;;;;;;-1.21;100.00;99020.34;12184396;19;20014;-85
2024/01/14 15:52:48;;;;;;;52.25;16.92;;;;;;;-1.25;100.00;99019.88;12204644;19;20470;-85
2024/01/14 15:56:49;;;;;;;51.47;15.70;;;;;;;-1.29;100.00;99012.34;12206286;19;20010;-83
2024/01/14 16:01:01;;;;;;;46.67;15.80;;;;;;;-1.25;100.00;99010.91;12195402;19;20994;-83
2024/01/14 16:05:15;;;;;;;52.50;16.40;;;;;;;-1.28;100.00;99000.50;12220079;19;20476;-85
2024/01/14 16:09:21;;;;;;;46.80;16.40;;;;;;;-1.40;100.00;99000.16;12221301;19;20002;-85
2024/01/14 16:13:37;;;;;;;41.60;16.15;;;;;;;-1.48;100.00;98998.44;12213795;19;20018;-86
2024/01/14 16:17:40;;;;;;;48.10;16.42;;;;;;;-1.44;100.00;98991.63;12267366;19;20021;-85
2024/01/14 16:21:43;;;;;;;50.88;16.60;;;;;;;-1.47;100.00;98988.47;12198950;19;20425;-84
2024/01/14 16:25:44;;;;;;;50.07;15.50;;;;;;;-1.55;100.00;98994.81;12213953;19;20834;-84
2024/01/14 16:29:48;;;;;;;40.28;14.23;;;;;;;-1.58;100.00;98981.69;12214793;19;20090;-85
2024/01/14 16:33:50;;;;;;;47.80;16.65;;;;;;;-1.55;100.00;98983.19;12195407;19;20006;-85
2024/01/14 16:37:55;;;;;;;46.17;14.82;;;;;;;-1.63;100.00;98978.75;12214303;19;20458;-85
2024/01/14 16:42:00;;;;;;;57.15;15.93;;;;;;;-1.66;100.00;98973.75;12218284;19;20011;-83
2024/01/14 16:46:04;;;;;;;50.97;16.85;;;;;;;-1.74;100.00;98966.56;12191684;19;20466;-84
2024/01/14 16:50:07;;;;;;;49.10;18.08;;;;;;;-1.76;100.00;98965.94;12215012;19;20011;-83
2024/01/14 16:54:09;;;;;;;51.40;15.75;;;;;;;-1.71;100.00;98958.09;12207436;19;20018;-82
2024/01/14 16:58:14;;;;;;;55.28;17.38;;;;;;;-1.77;100.00;98958.03;12192288;19;20006;-84
2024/01/14 17:02:16;;;;;;;54.40;17.87;;;;;;;-1.80;100.00;98953.00;12219874;19;20063;-84
2024/01/14 17:06:19;;;;;;;52.20;17.30;;;;;;;-1.77;100.00;98949.94;12209899;19;20015;-85
2024/01/14 17:10:26;;;;;;;52.10;17.02;;;;;;;-1.74;100.00;98944.97;12192383;19;20030;-86
2024/01/14 17:14:34;;;;;;;48.75;17.77;;;;;;;-1.76;100.00;98940.78;12205366;19;20002;-84
2024/01/14 17:18:36;;;;;;;47.87;17.40;;;;;;;-1.75;100.00;98937.06;12171019;19;20018;-82
2024/01/14 17:22:38;;;;;;;57.08;17.38;;;;;;;-1.72;100.00;98936.69;12194361;19;20551;-86
2024/01/14 17:26:43;;;;;;;56.42;18.80;;;;;;;-1.67;100.00;98932.34;12189342;19;20043;-86
2024/01/14 17:30:45;;;;;;;56.28;17.27;;;;;;;-1.67;100.00;98931.53;12176222;19;20003;-84
2024/01/14 17:34:46;;;;;;;37.00;13.10;;;;;;;-1.77;100.00;98918.34;12206043;19;20489;-83
2024/01/14 17:38:50;;;;;;;57.92;18.10;;;;;;;-1.72;100.00;98921.31;12204945;19;20255;-86
2024/01/14 17:42:55;;;;;;;58.45;17.10;;;;;;;-1.67;100.00;98918.84;12181044;19;20668;-84
2024/01/14 17:46:57;;;;;;;45.63;13.33;;;;;;;-1.73;100.00;98902.59;12212995;19;20628;-84
2024/01/14 17:51:02;;;;;;;55.28;18.27;;;;;;;-1.72;100.00;98910.50;12209376;19;20863;-86
2024/01/14 17:55:10;;;;;;;42.92;15.00;;;;;;;-1.78;100.00;98915.84;12184707;19;20014;-85
2024/01/14 17:59:12;;;;;;;48.13;16.13;;;;;;;-1.83;100.00;98911.84;12205400;19;20033;-87
2024/01/14 18:03:18;;;;;;;57.63;17.02;;;;;;;-1.73;100.00;98902.59;12195236;19;20015;-84
2024/01/14 18:07:20;;;;;;;46.65;15.20;;;;;;;-1.73;100.00;98898.03;12182562;19;20503;-84
2024/01/14 18:11:23;;;;;;;50.78;16.05;;;;;;;-1.77;100.00;98890.50;12204380;19;20009;-84
2024/01/14 18:15:25;;;;;;;47.53;16.00;;;;;;;-1.68;100.00;98892.06;12199710;19;20018;-85
2024/01/14 18:19:27;;;;;;;53.80;15.40;;;;;;;-1.65;100.00;98887.09;12184338;19;20425;-83
2024/01/14 18:23:32;;;;;;;51.33;16.60;;;;;;;-1.75;100.00;98888.47;12215118;19;20131;-83